createdAt,value
2022-08-03T00:00:00.262Z,66
2022-08-03T00:05:00.223Z,66
2022-08-03T00:10:00.268Z,66
2022-08-03T00:15:00.208Z,67
2022-08-03T00:20:00.170Z,67
2022-08-03T00:25:00.192Z,67
2022-08-03T00:30:00.622Z,67
2022-08-03T00:35:00.206Z,67
2022-08-03T00:40:00.284Z,68
2022-08-03T00:45:00.217Z,68
2022-08-03T00:50:00.303Z,68
2022-08-03T00:55:00.137Z,68
2022-08-03T01:00:00.323Z,68
2022-08-03T01:05:00.138Z,68
2022-08-03T01:10:00.288Z,68
2022-08-03T01:15:00.271Z,69
2022-08-03T01:20:00.263Z,69
2022-08-03T01:25:00.245Z,69
2022-08-03T01:30:00.300Z,69
2022-08-03T01:35:00.177Z,69
2022-08-03T01:40:00.242Z,69
2022-08-03T01:45:00.210Z,69
2022-08-03T01:50:00.295Z,69
2022-08-03T01:55:00.213Z,69
2022-08-03T02:00:00.222Z,70
2022-08-03T02:05:00.204Z,70
2022-08-03T02:10:00.271Z,70
2022-08-03T02:15:00.263Z,70
2022-08-03T02:20:00.264Z,70
2022-08-03T02:25:00.298Z,70
2022-08-03T02:30:00.237Z,71
2022-08-03T02:35:00.117Z,71
2022-08-03T02:40:00.240Z,71
2022-08-03T02:45:00.133Z,71
2022-08-03T02:50:00.308Z,71
2022-08-03T02:55:00.163Z,71
2022-08-03T03:00:00.321Z,71
2022-08-03T03:05:55.927Z,71
2022-08-03T03:10:00.251Z,71
2022-08-03T03:15:00.174Z,71
2022-08-03T03:20:00.233Z,71
2022-08-03T03:25:00.208Z,71
2022-08-03T03:30:00.282Z,72
2022-08-03T03:35:00.222Z,72
2022-08-03T03:40:00.256Z,72
2022-08-03T03:45:00.218Z,72
2022-08-03T03:50:00.237Z,72
2022-08-03T03:55:01.238Z,72
2022-08-03T04:00:00.321Z,72
2022-08-03T04:05:00.311Z,72
2022-08-03T04:10:00.994Z,73
2022-08-03T04:15:00.266Z,73
2022-08-03T04:20:00.306Z,73
2022-08-03T04:25:00.294Z,73
2022-08-03T04:30:00.272Z,73
2022-08-03T04:35:00.225Z,73
2022-08-03T04:40:00.320Z,73
2022-08-03T04:45:01.657Z,73
2022-08-03T04:50:00.329Z,73
2022-08-03T04:55:00.284Z,73
2022-08-03T05:00:03.051Z,73
2022-08-03T05:05:00.325Z,74
2022-08-03T05:10:01.676Z,74
2022-08-03T05:15:00.168Z,73
2022-08-03T05:20:00.251Z,73
2022-08-03T05:25:00.267Z,73
2022-08-03T05:30:30.393Z,73
2022-08-03T05:35:00.252Z,73
2022-08-03T05:40:00.264Z,74
2022-08-03T05:45:00.158Z,73
2022-08-03T05:50:00.250Z,74
2022-08-03T05:55:00.194Z,74
2022-08-03T06:00:00.227Z,74
2022-08-03T06:05:00.259Z,74
2022-08-03T06:10:34.084Z,74
2022-08-03T06:15:00.235Z,74
2022-08-03T06:20:00.242Z,74
2022-08-03T06:25:04.991Z,74
2022-08-03T06:30:00.287Z,74
2022-08-03T06:35:00.166Z,74
2022-08-03T06:40:00.246Z,73
2022-08-03T06:45:00.262Z,73
2022-08-03T06:50:12.619Z,73
2022-08-03T06:55:00.162Z,73
2022-08-03T07:00:07.395Z,72
2022-08-03T07:05:00.356Z,72
2022-08-03T07:10:00.301Z,72
2022-08-03T07:15:01.710Z,71
2022-08-03T07:20:00.352Z,70
2022-08-03T07:25:00.298Z,69
2022-08-03T07:30:00.296Z,69
2022-08-03T07:35:01.338Z,68
2022-08-03T07:40:00.416Z,68
2022-08-03T07:45:00.284Z,67
2022-08-03T07:50:00.300Z,67
2022-08-03T07:55:00.260Z,67
2022-08-03T08:00:02.350Z,67
2022-08-03T08:05:05.116Z,66
2022-08-03T08:10:00.256Z,66
2022-08-03T08:15:00.231Z,66
2022-08-03T08:20:00.277Z,66
2022-08-03T08:25:01.346Z,65
2022-08-03T08:30:07.218Z,64
2022-08-03T08:35:00.165Z,64
2022-08-03T08:40:00.271Z,64
2022-08-03T08:45:00.283Z,64
2022-08-03T08:50:09.908Z,63
2022-08-03T08:55:00.377Z,63
2022-08-03T09:00:00.371Z,62
2022-08-03T09:05:04.046Z,62
2022-08-03T09:10:12.161Z,62
2022-08-03T09:15:15.997Z,62
2022-08-03T09:20:03.575Z,61
2022-08-03T09:25:22.877Z,60
2022-08-03T09:30:00.275Z,61
2022-08-03T09:35:00.214Z,60
2022-08-03T09:40:00.249Z,60
2022-08-03T09:45:00.233Z,60
2022-08-03T09:50:00.272Z,58
2022-08-03T09:55:00.245Z,59
2022-08-03T10:00:04.643Z,58
2022-08-03T10:05:00.226Z,58
2022-08-03T10:10:31.714Z,57
2022-08-03T10:15:00.278Z,56
2022-08-03T10:20:00.280Z,56
2022-08-03T10:25:00.269Z,56
2022-08-03T10:30:00.294Z,55
2022-08-03T10:35:04.118Z,55
2022-08-03T10:40:00.293Z,55
2022-08-03T10:45:00.214Z,54
2022-08-03T10:50:00.370Z,54
2022-08-03T10:55:00.353Z,54
2022-08-03T11:00:00.270Z,53
2022-08-03T11:05:00.210Z,53
2022-08-03T11:10:00.254Z,53
2022-08-03T11:15:00.155Z,53
2022-08-03T11:20:00.230Z,52
2022-08-03T11:25:00.319Z,53
2022-08-03T11:30:00.295Z,52
2022-08-03T11:35:00.238Z,52
2022-08-03T11:40:02.367Z,52
2022-08-03T11:45:00.281Z,52
2022-08-03T11:50:00.518Z,51
2022-08-03T11:55:00.248Z,50
2022-08-03T12:00:00.325Z,50
2022-08-03T12:05:00.262Z,50
2022-08-03T12:10:00.334Z,50
2022-08-03T12:15:00.163Z,50
2022-08-03T12:20:00.233Z,49
2022-08-03T12:25:00.163Z,48
2022-08-03T12:30:00.246Z,49
2022-08-03T12:35:00.505Z,49
2022-08-03T12:40:02.566Z,49
2022-08-03T12:45:00.312Z,48
2022-08-03T12:50:00.209Z,48
2022-08-03T12:55:00.504Z,47
2022-08-03T13:00:00.341Z,47
2022-08-03T13:05:00.226Z,47
2022-08-03T13:10:03.741Z,48
2022-08-03T13:15:00.279Z,47
2022-08-03T13:20:00.273Z,47
2022-08-03T13:25:00.271Z,47
2022-08-03T13:30:00.309Z,47
2022-08-03T13:35:00.256Z,47
2022-08-03T13:40:02.418Z,48
2022-08-03T13:45:00.215Z,47
2022-08-03T13:50:02.742Z,46
2022-08-03T13:55:00.449Z,46
2022-08-03T14:00:00.305Z,46
2022-08-03T14:05:00.279Z,46
2022-08-03T14:10:00.278Z,46
2022-08-03T14:15:01.710Z,44
2022-08-03T14:20:00.261Z,45
2022-08-03T14:25:00.171Z,45
2022-08-03T14:30:00.413Z,45
2022-08-03T14:35:00.272Z,45
2022-08-03T14:40:00.987Z,45
2022-08-03T14:45:03.611Z,45
2022-08-03T14:50:37.525Z,43
2022-08-03T14:55:00.264Z,43
2022-08-03T15:00:00.411Z,43
2022-08-03T15:05:00.168Z,43
2022-08-03T15:10:00.222Z,43
2022-08-03T15:15:00.266Z,43
2022-08-03T15:20:22.558Z,43
2022-08-03T15:25:00.277Z,43
2022-08-03T15:30:07.649Z,43
2022-08-03T15:35:00.277Z,42
2022-08-03T15:40:01.185Z,43
2022-08-03T15:45:00.184Z,43
2022-08-03T15:50:00.284Z,43
2022-08-03T15:55:00.212Z,43
2022-08-03T16:00:00.284Z,43
2022-08-03T16:05:00.208Z,42
2022-08-03T16:10:00.249Z,42
2022-08-03T16:15:00.207Z,43
2022-08-03T16:20:00.301Z,42
2022-08-03T16:25:00.265Z,41
2022-08-03T16:30:00.293Z,42
2022-08-03T16:35:00.263Z,42
2022-08-03T16:40:00.306Z,42
2022-08-03T16:45:00.278Z,41
2022-08-03T16:50:00.710Z,42
2022-08-03T16:55:00.268Z,41
2022-08-03T17:00:00.277Z,42
2022-08-03T17:05:00.202Z,42
2022-08-03T17:10:00.324Z,41
2022-08-03T17:15:00.213Z,42
2022-08-03T17:20:00.188Z,42
2022-08-03T17:25:00.290Z,41
2022-08-03T17:30:00.277Z,42
2022-08-03T17:35:00.317Z,42
2022-08-03T17:40:00.252Z,42
2022-08-03T17:45:02.558Z,42
2022-08-03T17:50:00.254Z,42
2022-08-03T17:55:54.787Z,41
2022-08-03T18:00:00.379Z,42
2022-08-03T18:05:00.666Z,42
2022-08-03T18:10:03.252Z,42
2022-08-03T18:15:01.253Z,42
2022-08-03T18:20:02.635Z,42
2022-08-03T18:25:00.170Z,43
2022-08-03T18:30:00.340Z,43
2022-08-03T18:35:00.260Z,44
2022-08-03T18:40:00.399Z,44
2022-08-03T18:45:00.192Z,44
2022-08-03T18:50:00.254Z,45
2022-08-03T18:55:09.521Z,45
2022-08-03T19:00:00.277Z,45
2022-08-03T19:05:00.300Z,47
2022-08-03T19:10:00.298Z,47
2022-08-03T19:15:00.235Z,47
2022-08-03T19:20:01.625Z,48
2022-08-03T19:25:00.220Z,48
2022-08-03T19:30:03.748Z,48
2022-08-03T19:35:00.320Z,49
2022-08-03T19:40:00.301Z,49
2022-08-03T19:45:00.255Z,50
2022-08-03T19:50:10.209Z,50
2022-08-03T19:55:00.316Z,50
2022-08-03T20:00:03.310Z,51
2022-08-03T20:05:00.547Z,51
2022-08-03T20:10:01.313Z,51
2022-08-03T20:15:00.161Z,52
2022-08-03T20:20:00.241Z,52
2022-08-03T20:25:00.224Z,52
2022-08-03T20:30:06.721Z,52
2022-08-03T20:35:00.228Z,53
2022-08-03T20:40:00.250Z,53
2022-08-03T20:45:06.149Z,53
2022-08-03T20:50:00.234Z,53
2022-08-03T20:55:00.215Z,53
2022-08-03T21:00:00.299Z,53
2022-08-03T21:05:03.514Z,54
2022-08-03T21:10:00.228Z,55
2022-08-03T21:15:00.130Z,55
2022-08-03T21:20:00.180Z,55
2022-08-03T21:25:00.205Z,55
2022-08-03T21:30:00.289Z,56
2022-08-03T21:35:00.168Z,56
2022-08-03T21:40:00.460Z,56
2022-08-03T21:45:00.124Z,56
2022-08-03T21:50:08.354Z,57
2022-08-03T21:55:00.165Z,57
2022-08-03T22:00:00.256Z,57
2022-08-03T22:05:00.212Z,57
2022-08-03T22:10:00.297Z,58
2022-08-03T22:15:01.797Z,58
2022-08-03T22:20:00.219Z,58
2022-08-03T22:25:00.144Z,58
2022-08-03T22:30:00.202Z,58
2022-08-03T22:35:00.181Z,59
2022-08-03T22:40:00.226Z,59
2022-08-03T22:45:00.182Z,59
2022-08-03T22:50:32.401Z,59
2022-08-03T22:55:00.208Z,59
2022-08-03T23:00:00.249Z,60
2022-08-03T23:05:00.255Z,60
2022-08-03T23:10:00.248Z,60
2022-08-03T23:15:00.126Z,61
2022-08-03T23:20:00.309Z,61
2022-08-03T23:25:00.204Z,61
2022-08-03T23:30:00.299Z,61
2022-08-03T23:35:00.129Z,61
2022-08-03T23:40:00.254Z,61
2022-08-03T23:45:06.169Z,61
2022-08-03T23:50:00.248Z,62
2022-08-03T23:55:00.126Z,62
